KCGE

Cambridge-Dorchester Regional Airport

Cambridge, Maryland, USA
METAR KCGE 122040Z AUTO 00000KT 10SM CLR 06/M03 A3018 RMK A01
Observed Flight Rules
Dec-12 @ 20:40 UTC (27 minutes ago) Visual Flight Rules
Visibility Clouds
10 miles
  • Clear skies
Temperatures Readings
Current 6°C / 43°F
Dewpoint -3°C / 27°F
Humidity 53%
Altimeter 30.18" Hg
Pressure 1022 hPa
Elevation 6
METAR KCGE 122040Z AUTO 00000KT 10SM CLR 06/M03 A3018 RMK A01
Observed Flight Rules
Dec-12 @ 20:40 UTC
(27 minutes ago)
VFR
Clouds
  • Clear skies
Temperature Dewpoint
6°C / 43°F -3°C / 27°F
Humidity Altimeter Pressure
53% 30.18" Hg 1022 hPa